Time;durP1;ratioP1;P1;durP2;ratioP2;P2;SDS_P1;SDS_P2;PMS_P1;PMS_P2;Temp;Humidity;BMP_temperature;BMP_pressure;BME280_temperature;BME280_humidity;BME280_pressure;Samples;Min_cycle;Max_cycle;Signal;HPM_P1;HPM_P2
2023/09/10 00:01:15;;;;;;;7.88;5.97;;;23.80;99.90;;;;;;4137588;28;20084;-67
2023/09/10 00:03:16;;;;;;;8.25;6.60;;;23.80;99.90;;;;;;4130856;28;20482;-67
2023/09/10 00:05:17;;;;;;;7.80;6.43;;;23.70;99.90;;;;;;4139232;28;20038;-67
2023/09/10 00:07:17;;;;;;;8.35;6.47;;;23.70;99.90;;;;;;4134781;28;20450;-67
2023/09/10 00:09:18;;;;;;;9.60;6.70;;;23.70;99.90;;;;;;4133785;28;20034;-67
2023/09/10 00:11:18;;;;;;;8.65;6.70;;;23.70;99.90;;;;;;4133829;28;20035;-67
2023/09/10 00:13:19;;;;;;;9.73;6.88;;;23.70;99.90;;;;;;4140832;28;20173;-66
2023/09/10 00:15:20;;;;;;;8.43;6.90;;;23.70;99.90;;;;;;4141897;28;20490;-67
2023/09/10 00:17:20;;;;;;;8.60;6.95;;;23.70;99.90;;;;;;4142969;28;20474;-67
2023/09/10 00:19:21;;;;;;;8.25;6.28;;;23.60;99.90;;;;;;4135817;28;20037;-67
2023/09/10 00:21:23;;;;;;;7.03;6.28;;;23.60;99.90;;;;;;4132307;28;20129;-67
2023/09/10 00:23:23;;;;;;;8.98;7.05;;;23.60;99.90;;;;;;4147825;28;20037;-67
2023/09/10 00:25:24;;;;;;;8.23;6.70;;;23.60;99.90;;;;;;4139473;28;20038;-67
2023/09/10 00:27:25;;;;;;;8.18;6.90;;;23.60;99.90;;;;;;4134685;28;20034;-66
2023/09/10 00:29:26;;;;;;;9.10;6.93;;;23.50;99.90;;;;;;4141108;28;20196;-67
2023/09/10 00:31:27;;;;;;;8.43;7.47;;;23.50;99.90;;;;;;4134670;28;20056;-67
2023/09/10 00:33:27;;;;;;;9.10;6.88;;;23.50;99.90;;;;;;4135852;28;21411;-66
2023/09/10 00:35:28;;;;;;;8.73;6.75;;;23.50;99.90;;;;;;4138624;28;20045;-65
2023/09/10 00:37:29;;;;;;;11.13;8.43;;;23.50;99.90;;;;;;4139843;28;20060;-66
2023/09/10 00:39:29;;;;;;;8.68;7.13;;;23.50;99.90;;;;;;4137142;28;20487;-66
2023/09/10 00:41:30;;;;;;;8.35;7.13;;;23.40;99.90;;;;;;4128431;28;20491;-66
2023/09/10 00:43:31;;;;;;;8.48;7.30;;;23.40;99.90;;;;;;4134685;28;20044;-70
2023/09/10 00:45:32;;;;;;;9.98;7.63;;;23.40;99.90;;;;;;4133362;28;20064;-67
2023/09/10 00:47:33;;;;;;;9.50;7.72;;;23.40;99.90;;;;;;4145012;28;20041;-67
2023/09/10 00:49:35;;;;;;;11.30;8.60;;;23.40;99.90;;;;;;4133512;28;20491;-67
2023/09/10 00:51:36;;;;;;;8.57;7.27;;;23.40;99.90;;;;;;4128079;28;20114;-67
2023/09/10 00:53:36;;;;;;;8.85;7.15;;;23.40;99.90;;;;;;4143473;28;20045;-67
2023/09/10 00:55:37;;;;;;;10.18;8.13;;;23.40;99.90;;;;;;4138456;28;20034;-66
2023/09/10 00:57:38;;;;;;;8.43;6.57;;;23.30;99.90;;;;;;4137816;28;20057;-67
2023/09/10 00:59:39;;;;;;;7.07;6.00;;;23.40;99.90;;;;;;4141391;28;20060;-67
2023/09/10 01:01:39;;;;;;;8.40;6.43;;;23.30;99.90;;;;;;4139946;28;20069;-66
2023/09/10 01:03:40;;;;;;;7.82;6.38;;;23.30;99.90;;;;;;4137718;28;20044;-67
2023/09/10 01:05:41;;;;;;;8.20;6.88;;;23.30;99.90;;;;;;4141901;28;20026;-68
2023/09/10 01:07:42;;;;;;;8.65;7.07;;;23.30;99.90;;;;;;4134942;28;20037;-66
2023/09/10 01:09:42;;;;;;;7.63;6.47;;;23.20;99.90;;;;;;4136998;28;20034;-67
2023/09/10 01:12:32;;;;;;;7.00;6.10;;;23.20;99.90;;;;;;4139013;28;20042;-67
2023/09/10 01:14:38;;;;;;;8.48;6.82;;;23.20;99.90;;;;;;4133349;28;20050;-67
2023/09/10 01:16:44;;;;;;;8.80;7.70;;;23.20;99.90;;;;;;4131138;28;20028;-67
2023/09/10 01:18:49;;;;;;;8.93;7.43;;;23.20;99.90;;;;;;4144697;28;20048;-67
2023/09/10 01:21:36;;;;;;;9.73;7.57;;;23.10;99.90;;;;;;4137851;28;20037;-67
2023/09/10 01:23:49;;;;;;;8.00;7.10;;;23.10;99.90;;;;;;4142188;28;20487;-67
2023/09/10 01:25:51;;;;;;;8.48;6.97;;;23.10;99.90;;;;;;4138386;28;20038;-66
2023/09/10 01:27:52;;;;;;;7.90;6.32;;;23.10;99.90;;;;;;4140436;28;20042;-67
2023/09/10 01:29:52;;;;;;;6.85;6.13;;;23.10;99.90;;;;;;4129764;28;20121;-66
2023/09/10 01:31:59;;;;;;;7.88;6.35;;;23.10;99.90;;;;;;4131574;28;20046;-66
2023/09/10 01:34:03;;;;;;;10.00;6.65;;;23.00;99.90;;;;;;4142233;28;20074;-70
2023/09/10 01:36:09;;;;;;;8.52;7.35;;;23.00;99.90;;;;;;4131627;28;20387;-66
2023/09/10 01:38:39;;;;;;;8.88;7.10;;;23.00;99.90;;;;;;4138205;28;20515;-70
2023/09/10 01:40:51;;;;;;;7.90;6.70;;;22.90;99.90;;;;;;4137984;28;20454;-66
2023/09/10 01:42:51;;;;;;;8.10;6.70;;;22.90;99.90;;;;;;4138302;28;20068;-67
2023/09/10 01:44:53;;;;;;;9.18;7.13;;;22.90;99.90;;;;;;4138543;28;20046;-67
2023/09/10 01:46:54;;;;;;;8.90;7.45;;;22.90;99.90;;;;;;4137853;28;20069;-68
2023/09/10 01:48:55;;;;;;;9.30;6.53;;;22.90;99.90;;;;;;4136449;28;20041;-67
2023/09/10 01:50:55;;;;;;;9.65;7.53;;;22.90;99.90;;;;;;4132149;28;20038;-66
2023/09/10 01:52:59;;;;;;;12.85;7.78;;;22.90;99.90;;;;;;4133267;28;20557;-67
2023/09/10 01:54:59;;;;;;;9.48;7.53;;;22.90;99.90;;;;;;4140408;28;20577;-67
2023/09/10 01:57:00;;;;;;;9.20;7.40;;;22.80;99.90;;;;;;4130993;28;20038;-67
2023/09/10 01:59:01;;;;;;;8.82;7.03;;;22.80;99.90;;;;;;4132529;28;20030;-66
2023/09/10 02:01:01;;;;;;;10.05;8.48;;;22.80;99.90;;;;;;4138234;28;20029;-67
2023/09/10 02:03:02;;;;;;;10.98;8.13;;;22.80;99.90;;;;;;4140904;28;20026;-67
2023/09/10 02:05:03;;;;;;;10.30;7.43;;;22.80;99.90;;;;;;4136177;28;20042;-69
2023/09/10 02:07:04;;;;;;;7.95;6.72;;;22.80;99.90;;;;;;4133971;28;20503;-67
2023/09/10 02:09:05;;;;;;;8.45;6.97;;;22.80;99.90;;;;;;4134787;28;20125;-66
2023/09/10 02:11:05;;;;;;;10.13;8.52;;;22.80;99.90;;;;;;4135657;28;20502;-66
2023/09/10 02:13:06;;;;;;;11.63;7.88;;;22.70;99.90;;;;;;4134369;28;20053;-69
2023/09/10 02:15:08;;;;;;;10.63;8.25;;;22.70;99.90;;;;;;4136616;28;20054;-68
2023/09/10 02:17:10;;;;;;;12.93;8.35;;;22.70;99.90;;;;;;4138848;28;20088;-69
2023/09/10 02:19:11;;;;;;;10.07;7.80;;;22.70;99.90;;;;;;4136705;28;20030;-67
2023/09/10 02:21:12;;;;;;;9.30;7.43;;;22.70;99.90;;;;;;4141721;28;20100;-69
2023/09/10 02:23:13;;;;;;;9.02;7.20;;;22.70;99.90;;;;;;4145521;28;20034;-66
2023/09/10 02:25:14;;;;;;;8.77;7.38;;;22.70;99.90;;;;;;4136119;28;20037;-69
2023/09/10 02:27:14;;;;;;;9.30;7.45;;;22.70;99.90;;;;;;4133161;28;20483;-68
2023/09/10 02:29:15;;;;;;;8.65;7.20;;;22.70;99.90;;;;;;4143551;28;20034;-69
2023/09/10 02:31:15;;;;;;;10.30;7.00;;;22.70;99.90;;;;;;4128242;28;20070;-68
2023/09/10 02:33:16;;;;;;;8.50;6.82;;;22.70;99.90;;;;;;4140092;28;20042;-67
2023/09/10 02:35:17;;;;;;;8.52;6.25;;;22.70;99.90;;;;;;4129958;28;20073;-67
2023/09/10 02:37:18;;;;;;;8.25;6.63;;;22.60;99.90;;;;;;4138975;28;20144;-66
2023/09/10 02:39:18;;;;;;;7.28;6.50;;;22.60;99.90;;;;;;4135168;28;20041;-66
2023/09/10 02:41:19;;;;;;;8.30;6.88;;;22.60;99.90;;;;;;4132355;28;20088;-69
2023/09/10 02:43:19;;;;;;;8.30;6.97;;;22.60;99.90;;;;;;4134229;28;20117;-66
2023/09/10 02:45:20;;;;;;;7.82;6.75;;;22.60;99.90;;;;;;4133218;28;20030;-66
2023/09/10 02:47:21;;;;;;;7.47;5.93;;;22.60;99.90;;;;;;4132651;28;20052;-68
2023/09/10 02:49:21;;;;;;;8.45;6.70;;;22.60;99.90;;;;;;4135785;28;20161;-67
2023/09/10 02:51:22;;;;;;;10.73;7.18;;;22.60;99.90;;;;;;4136429;28;20033;-66
2023/09/10 02:53:22;;;;;;;8.75;7.22;;;22.50;99.90;;;;;;4140754;28;20402;-66
2023/09/10 02:55:23;;;;;;;10.32;7.47;;;22.60;99.90;;;;;;4142605;28;20023;-67
2023/09/10 02:57:24;;;;;;;9.63;7.72;;;22.50;99.90;;;;;;4130392;28;20495;-66
2023/09/10 02:59:26;;;;;;;9.55;7.68;;;22.50;99.90;;;;;;4140677;28;20552;-67
2023/09/10 03:01:26;;;;;;;11.02;8.15;;;22.50;99.90;;;;;;4136349;28;20164;-68
2023/09/10 03:03:27;;;;;;;13.35;9.48;;;22.50;99.90;;;;;;4134385;28;20049;-66
2023/09/10 03:05:33;;;;;;;11.05;8.60;;;22.50;99.90;;;;;;4138262;28;20104;-67
2023/09/10 03:07:33;;;;;;;10.45;8.48;;;22.50;99.90;;;;;;4140581;28;20030;-67
2023/09/10 03:09:34;;;;;;;10.48;8.50;;;22.50;99.90;;;;;;4134422;28;20470;-67
2023/09/10 03:11:37;;;;;;;12.18;8.68;;;22.40;99.90;;;;;;4137403;28;20088;-67
2023/09/10 03:13:38;;;;;;;10.13;8.05;;;22.40;99.90;;;;;;4143045;28;20050;-66
2023/09/10 03:15:38;;;;;;;9.90;8.80;;;22.40;99.90;;;;;;4139738;28;20050;-66
2023/09/10 03:17:39;;;;;;;10.75;8.00;;;22.40;99.90;;;;;;4142328;28;20482;-66
2023/09/10 03:19:40;;;;;;;10.35;8.45;;;22.40;99.90;;;;;;4136460;28;20691;-72
2023/09/10 03:21:41;;;;;;;21.88;9.68;;;22.40;99.90;;;;;;4139566;28;20030;-73
2023/09/10 03:23:41;;;;;;;12.65;9.30;;;22.40;99.90;;;;;;4144288;28;20050;-73
2023/09/10 03:25:42;;;;;;;11.10;8.52;;;22.40;99.90;;;;;;4135906;28;20510;-73
2023/09/10 03:27:43;;;;;;;10.57;8.48;;;22.40;99.90;;;;;;4139449;28;20437;-73
2023/09/10 03:29:44;;;;;;;9.93;8.10;;;22.40;99.90;;;;;;4135550;28;20033;-73
2023/09/10 03:31:45;;;;;;;10.30;8.10;;;22.30;99.90;;;;;;4135522;28;20034;-72
2023/09/10 03:33:45;;;;;;;9.95;7.93;;;22.30;99.90;;;;;;4136476;28;20112;-72
2023/09/10 03:35:46;;;;;;;10.88;8.93;;;22.20;99.90;;;;;;4131091;28;20042;-72
2023/09/10 03:37:46;;;;;;;11.27;8.52;;;22.20;99.90;;;;;;4117691;28;20492;-74
2023/09/10 03:39:47;;;;;;;8.43;7.28;;;22.20;99.90;;;;;;4142985;28;20074;-71
2023/09/10 03:41:48;;;;;;;9.93;7.97;;;22.10;99.90;;;;;;4139569;28;20038;-73
2023/09/10 03:43:48;;;;;;;11.38;8.38;;;22.10;99.90;;;;;;4133869;28;20049;-70
2023/09/10 03:45:49;;;;;;;11.00;8.80;;;22.10;99.90;;;;;;4139348;28;20038;-73
2023/09/10 03:47:49;;;;;;;10.00;8.15;;;22.10;99.90;;;;;;4135711;28;20038;-73
2023/09/10 03:49:50;;;;;;;10.40;8.48;;;22.10;99.90;;;;;;4137220;28;20097;-73
2023/09/10 03:51:53;;;;;;;11.30;8.88;;;22.10;99.90;;;;;;4134168;28;20113;-73
2023/09/10 03:53:53;;;;;;;;;;;22.10;99.90;;;;;;4144758;28;20414;-72
2023/09/10 03:55:54;;;;;;;9.23;7.80;;;22.10;99.90;;;;;;4146080;28;19914;-72
2023/09/10 03:57:54;;;;;;;10.88;7.70;;;22.10;99.90;;;;;;4139842;28;20091;-73
2023/09/10 03:59:55;;;;;;;9.50;8.23;;;22.10;99.90;;;;;;4138222;28;20038;-73
2023/09/10 04:01:59;;;;;;;10.35;7.47;;;22.10;99.90;;;;;;4134587;28;20031;-73
2023/09/10 04:03:59;;;;;;;11.10;8.70;;;22.10;99.90;;;;;;4137702;28;20053;-72
2023/09/10 04:06:00;;;;;;;10.60;7.40;;;22.10;99.90;;;;;;4134102;28;20644;-73
2023/09/10 04:08:00;;;;;;;9.25;7.50;;;22.10;99.90;;;;;;4134615;28;20065;-73
2023/09/10 04:10:02;;;;;;;9.45;7.65;;;22.10;99.90;;;;;;4139399;28;20415;-73
2023/09/10 04:12:03;;;;;;;13.75;7.75;;;22.10;99.90;;;;;;4139702;28;20045;-72
2023/09/10 04:14:03;;;;;;;9.85;7.88;;;22.00;99.90;;;;;;4149136;28;20528;-72
2023/09/10 04:16:04;;;;;;;9.65;7.60;;;22.00;99.90;;;;;;4139238;28;20046;-72
2023/09/10 04:18:05;;;;;;;8.95;7.35;;;22.00;99.90;;;;;;4138195;28;20415;-72
2023/09/10 04:20:08;;;;;;;10.18;7.32;;;22.00;99.90;;;;;;4137510;28;20052;-71
2023/09/10 04:22:08;;;;;;;10.90;7.35;;;22.00;99.90;;;;;;4144731;28;20038;-72
2023/09/10 04:24:09;;;;;;;9.43;7.60;;;21.90;99.90;;;;;;4132356;28;20104;-72
2023/09/10 04:26:12;;;;;;;11.65;8.75;;;21.90;99.90;;;;;;4132514;28;20038;-73
2023/09/10 04:28:13;;;;;;;9.38;7.47;;;21.90;99.90;;;;;;4136258;28;20100;-72
2023/09/10 04:30:14;;;;;;;9.15;7.35;;;22.00;99.90;;;;;;4122184;28;20035;-71
2023/09/10 04:32:14;;;;;;;7.95;6.60;;;21.90;99.90;;;;;;4136803;28;20531;-71
2023/09/10 04:34:15;;;;;;;7.60;6.45;;;21.90;99.90;;;;;;4132081;28;20076;-71
2023/09/10 04:36:15;;;;;;;9.10;6.55;;;21.90;99.90;;;;;;4130093;28;20045;-72
2023/09/10 04:38:16;;;;;;;9.63;7.57;;;21.80;99.90;;;;;;4142956;28;20075;-70
2023/09/10 04:40:18;;;;;;;8.90;7.47;;;21.80;99.90;;;;;;4136787;28;20030;-71
2023/09/10 04:42:18;;;;;;;9.73;7.45;;;21.70;99.90;;;;;;4135761;28;20396;-73
2023/09/10 04:44:19;;;;;;;9.50;6.38;;;21.70;99.90;;;;;;4140381;28;20491;-72
2023/09/10 04:46:20;;;;;;;8.15;7.13;;;21.60;99.90;;;;;;4137056;28;20487;-73
2023/09/10 04:48:21;;;;;;;8.70;7.63;;;21.70;99.90;;;;;;4134204;28;20065;-70
2023/09/10 04:50:21;;;;;;;10.48;7.93;;;21.60;99.90;;;;;;4139628;28;20034;-72
2023/09/10 04:52:22;;;;;;;9.68;7.65;;;21.60;99.90;;;;;;4129633;28;20034;-72
2023/09/10 04:54:23;;;;;;;8.77;7.07;;;21.60;99.90;;;;;;4133689;28;20053;-72
2023/09/10 04:56:23;;;;;;;9.57;7.38;;;21.60;99.90;;;;;;4135850;28;20034;-72
2023/09/10 04:58:24;;;;;;;12.80;7.45;;;21.60;99.90;;;;;;4133719;28;20038;-72
2023/09/10 05:00:24;;;;;;;9.60;6.95;;;21.60;99.90;;;;;;4133823;28;20033;-72
2023/09/10 05:02:25;;;;;;;9.57;7.78;;;21.70;99.90;;;;;;4138250;28;20041;-72
2023/09/10 05:04:26;;;;;;;8.65;7.68;;;21.70;99.90;;;;;;4131141;28;20037;-73
2023/09/10 05:06:26;;;;;;;9.27;8.00;;;21.70;99.90;;;;;;4137655;28;20037;-72
2023/09/10 05:08:27;;;;;;;9.60;8.10;;;21.70;99.90;;;;;;4134104;28;20034;-72
2023/09/10 05:10:29;;;;;;;11.85;8.50;;;21.70;99.90;;;;;;4138720;28;20041;-73
2023/09/10 05:12:30;;;;;;;8.68;7.80;;;21.70;99.90;;;;;;4142409;28;20157;-72
2023/09/10 05:14:30;;;;;;;11.38;8.15;;;21.70;99.90;;;;;;4136783;28;20084;-73
2023/09/10 05:16:31;;;;;;;9.77;7.95;;;21.80;99.90;;;;;;4120036;28;20089;-72
2023/09/10 05:18:31;;;;;;;8.80;7.20;;;21.80;99.90;;;;;;4137437;28;21091;-70
2023/09/10 05:20:32;;;;;;;9.32;7.57;;;21.80;99.90;;;;;;4128739;28;20742;-72
2023/09/10 05:22:33;;;;;;;12.65;9.13;;;21.80;99.90;;;;;;4135818;28;20038;-72
2023/09/10 05:24:33;;;;;;;9.77;8.23;;;21.80;99.90;;;;;;4135599;28;20042;-73
2023/09/10 05:26:34;;;;;;;9.38;8.15;;;21.80;99.90;;;;;;4130270;28;20118;-73
2023/09/10 05:28:35;;;;;;;12.52;8.73;;;21.80;99.90;;;;;;4136843;28;20038;-70
2023/09/10 05:30:38;;;;;;;10.77;9.38;;;21.80;99.90;;;;;;4136874;28;20113;-72
2023/09/10 05:32:39;;;;;;;11.02;8.95;;;21.80;99.90;;;;;;4139577;28;20046;-72
2023/09/10 05:34:40;;;;;;;9.98;7.88;;;21.90;99.90;;;;;;4126922;28;20527;-73
2023/09/10 05:36:40;;;;;;;9.20;7.40;;;21.90;99.90;;;;;;4137357;28;20030;-73
2023/09/10 05:38:41;;;;;;;8.48;7.20;;;21.80;99.90;;;;;;4137638;28;20080;-65
2023/09/10 05:40:41;;;;;;;8.05;7.18;;;21.80;99.90;;;;;;4139377;28;20038;-66
2023/09/10 05:42:44;;;;;;;9.30;7.38;;;21.80;99.90;;;;;;4136911;28;20114;-66
2023/09/10 05:44:45;;;;;;;9.57;7.72;;;21.80;99.90;;;;;;4145440;28;20066;-68
2023/09/10 05:46:46;;;;;;;10.45;8.40;;;21.80;99.90;;;;;;4134684;28;20050;-66
2023/09/10 05:48:46;;;;;;;8.25;7.03;;;21.80;99.90;;;;;;4138623;28;20050;-65
2023/09/10 05:50:47;;;;;;;8.98;7.63;;;21.80;99.90;;;;;;4126404;28;20549;-65
2023/09/10 05:52:48;;;;;;;10.02;8.38;;;21.90;99.90;;;;;;4137952;28;20123;-66
2023/09/10 05:54:48;;;;;;;11.15;9.75;;;21.90;99.90;;;;;;4141436;28;20070;-65
2023/09/10 05:56:49;;;;;;;11.73;9.45;;;21.90;99.90;;;;;;4133134;28;20487;-65
2023/09/10 05:58:49;;;;;;;11.55;9.63;;;21.90;99.90;;;;;;4136149;28;20034;-65
2023/09/10 06:00:52;;;;;;;11.68;9.18;;;21.90;99.90;;;;;;4129052;28;20631;-66
2023/09/10 06:02:52;;;;;;;10.20;8.75;;;22.00;99.90;;;;;;4137721;28;20034;-68
2023/09/10 06:04:53;;;;;;;12.30;9.40;;;22.00;99.90;;;;;;4131263;28;20121;-65
2023/09/10 06:06:53;;;;;;;13.55;10.45;;;22.00;99.90;;;;;;4132967;28;20380;-65
2023/09/10 06:08:54;;;;;;;12.68;10.02;;;22.00;99.90;;;;;;4137696;28;20034;-65
2023/09/10 06:10:55;;;;;;;12.05;10.57;;;22.00;99.90;;;;;;4130864;28;20030;-66
2023/09/10 06:12:56;;;;;;;13.63;10.07;;;22.10;99.90;;;;;;4131331;28;20092;-66
2023/09/10 06:14:56;;;;;;;11.38;9.75;;;22.10;99.90;;;;;;4137210;28;20046;-66
2023/09/10 06:16:57;;;;;;;13.05;10.50;;;22.20;99.90;;;;;;4128146;28;20041;-65
2023/09/10 06:18:58;;;;;;;12.02;9.60;;;22.20;99.90;;;;;;4105194;28;20044;-66
2023/09/10 06:20:58;;;;;;;13.07;9.80;;;22.20;99.90;;;;;;4078775;28;20108;-66
2023/09/10 06:22:59;;;;;;;13.55;10.38;;;22.30;99.90;;;;;;4150253;28;20038;-65
2023/09/10 06:25:00;;;;;;;11.68;9.32;;;22.40;99.90;;;;;;4126715;28;20042;-65
2023/09/10 06:27:01;;;;;;;12.05;9.70;;;22.50;99.90;;;;;;4096539;28;20152;-65
2023/09/10 06:29:02;;;;;;;11.32;8.80;;;22.60;99.90;;;;;;4143823;28;20052;-66
2023/09/10 06:31:03;;;;;;;11.55;9.07;;;22.80;99.90;;;;;;4152104;28;20066;-65
2023/09/10 06:33:03;;;;;;;11.23;9.13;;;22.90;99.90;;;;;;4134493;28;20034;-65
2023/09/10 06:35:05;;;;;;;12.52;9.80;;;23.10;99.90;;;;;;4127647;28;20062;-66
2023/09/10 06:37:07;;;;;;;11.30;8.57;;;23.30;99.90;;;;;;4136393;28;20039;-66
2023/09/10 06:39:08;;;;;;;11.77;8.90;;;23.40;99.90;;;;;;4139887;28;20049;-66
2023/09/10 06:41:08;;;;;;;10.63;7.95;;;23.50;99.90;;;;;;4135922;28;20399;-67
2023/09/10 06:43:09;;;;;;;11.50;8.70;;;23.80;99.90;;;;;;4138949;28;20499;-66
2023/09/10 06:45:10;;;;;;;11.27;8.25;;;23.90;99.90;;;;;;4135305;28;20042;-66
2023/09/10 06:47:11;;;;;;;9.90;7.78;;;24.10;99.90;;;;;;4134917;28;20026;-69
2023/09/10 06:49:11;;;;;;;12.32;8.63;;;24.30;99.90;;;;;;4138581;28;20041;-67
2023/09/10 06:51:12;;;;;;;12.40;8.10;;;24.50;99.90;;;;;;4139311;28;20479;-67
2023/09/10 06:53:13;;;;;;;14.93;8.07;;;24.70;99.90;;;;;;4136301;28;20416;-67
2023/09/10 06:55:14;;;;;;;14.18;8.45;;;25.00;99.90;;;;;;4142275;28;20120;-66
2023/09/10 06:57:14;;;;;;;13.65;8.90;;;25.20;99.90;;;;;;4121471;28;20454;-68
2023/09/10 06:59:15;;;;;;;12.05;8.30;;;25.30;99.90;;;;;;4137038;28;20033;-67
2023/09/10 07:01:18;;;;;;;11.35;7.72;;;25.40;99.90;;;;;;4138684;28;20030;-68
2023/09/10 07:03:19;;;;;;;14.00;8.05;;;25.60;99.90;;;;;;4143391;28;20022;-66
2023/09/10 07:05:20;;;;;;;11.50;8.05;;;25.60;99.90;;;;;;4142796;28;20038;-67
2023/09/10 07:07:20;;;;;;;11.43;7.28;;;25.70;99.90;;;;;;4143052;28;20509;-67
2023/09/10 07:09:22;;;;;;;11.85;7.13;;;25.80;99.90;;;;;;4140418;28;20049;-67
2023/09/10 07:11:23;;;;;;;13.07;7.57;;;26.00;99.90;;;;;;4142395;28;20037;-68
2023/09/10 07:13:23;;;;;;;11.90;7.50;;;26.10;99.90;;;;;;4143520;28;20069;-66
2023/09/10 07:15:24;;;;;;;10.48;7.05;;;26.20;99.90;;;;;;4148305;28;20117;-66
2023/09/10 07:17:24;;;;;;;10.27;7.40;;;26.30;99.90;;;;;;4143101;28;20037;-66
2023/09/10 07:19:25;;;;;;;12.02;7.50;;;26.50;99.90;;;;;;4141408;28;20030;-66
2023/09/10 07:21:26;;;;;;;14.57;7.55;;;26.60;99.90;;;;;;4145117;28;20080;-65
2023/09/10 07:23:27;;;;;;;10.02;7.07;;;26.70;99.90;;;;;;4142820;28;20026;-65
2023/09/10 07:25:28;;;;;;;8.30;6.25;;;26.80;99.90;;;;;;4146189;28;20037;-65
2023/09/10 07:27:28;;;;;;;9.95;7.15;;;26.90;99.90;;;;;;4140718;28;20491;-65
2023/09/10 07:29:29;;;;;;;9.48;5.82;;;26.90;99.90;;;;;;4139495;28;20364;-66
2023/09/10 07:31:30;;;;;;;8.02;5.90;;;27.00;99.90;;;;;;4142168;28;20042;-65
2023/09/10 07:33:30;;;;;;;10.05;6.30;;;27.20;99.90;;;;;;4143131;28;20041;-65
2023/09/10 07:35:31;;;;;;;9.95;6.63;;;27.30;99.90;;;;;;4139421;28;20128;-65
2023/09/10 07:37:31;;;;;;;8.60;5.72;;;27.40;99.90;;;;;;4144405;28;20037;-65
2023/09/10 07:39:32;;;;;;;10.90;6.32;;;27.50;99.90;;;;;;4141296;28;20414;-65
2023/09/10 07:41:33;;;;;;;9.38;6.10;;;27.70;99.90;;;;;;4139958;28;20026;-66
2023/09/10 07:43:33;;;;;;;9.70;5.95;;;27.80;99.90;;;;;;4143988;28;20048;-66
2023/09/10 07:45:34;;;;;;;8.85;5.28;;;27.90;99.90;;;;;;4143261;28;20030;-66
2023/09/10 07:47:35;;;;;;;8.60;5.32;;;28.00;99.90;;;;;;4149554;28;20021;-66
2023/09/10 07:49:35;;;;;;;9.77;6.00;;;28.10;99.90;;;;;;4140514;28;20030;-67
2023/09/10 07:51:36;;;;;;;8.90;5.85;;;28.20;99.90;;;;;;4144877;28;20040;-65
2023/09/10 07:53:36;;;;;;;9.90;5.65;;;28.30;99.90;;;;;;4144058;28;20128;-65
2023/09/10 07:55:37;;;;;;;7.45;4.97;;;28.30;99.90;;;;;;4146664;28;20369;-65
2023/09/10 07:57:39;;;;;;;6.13;4.50;;;28.40;99.90;;;;;;4141665;28;20447;-66
2023/09/10 07:59:39;;;;;;;6.75;5.15;;;28.50;99.90;;;;;;4134466;28;20044;-65
2023/09/10 08:01:40;;;;;;;7.53;5.10;;;28.60;99.90;;;;;;4134514;28;20483;-65
2023/09/10 08:03:42;;;;;;;8.23;5.05;;;28.60;99.50;;;;;;4155985;28;20437;-65
2023/09/10 08:05:42;;;;;;;10.20;6.23;;;28.70;99.00;;;;;;4154678;28;20030;-65
2023/09/10 08:07:43;;;;;;;10.35;5.38;;;28.70;99.30;;;;;;4141889;28;20065;-65
2023/09/10 08:09:43;;;;;;;10.60;6.03;;;28.70;99.20;;;;;;4139989;28;20479;-65
2023/09/10 08:11:44;;;;;;;8.50;5.57;;;28.80;99.20;;;;;;4138964;28;20036;-65
2023/09/10 08:13:45;;;;;;;8.98;5.78;;;28.80;99.30;;;;;;4142532;28;20034;-65
2023/09/10 08:15:46;;;;;;;8.68;5.75;;;28.90;99.30;;;;;;4141407;28;20049;-68
2023/09/10 08:17:49;;;;;;;7.85;5.13;;;29.00;99.20;;;;;;4154378;28;20519;-65
2023/09/10 08:19:50;;;;;;;7.53;5.80;;;28.90;98.30;;;;;;4146579;28;20057;-67
2023/09/10 08:21:50;;;;;;;9.57;5.53;;;28.90;98.70;;;;;;4145544;28;20034;-68
2023/09/10 08:23:51;;;;;;;8.75;5.85;;;28.90;98.10;;;;;;4142315;28;20058;-65
2023/09/10 08:25:52;;;;;;;7.80;5.18;;;28.90;98.30;;;;;;4139502;28;20041;-65
2023/09/10 08:27:52;;;;;;;7.90;4.78;;;28.90;98.20;;;;;;4142714;28;20034;-65
2023/09/10 08:29:53;;;;;;;7.95;4.40;;;28.90;98.20;;;;;;4135012;28;20081;-66
2023/09/10 08:31:54;;;;;;;8.10;4.95;;;29.00;98.40;;;;;;4139768;28;20041;-65
2023/09/10 08:33:54;;;;;;;7.35;4.43;;;29.00;98.00;;;;;;4143397;28;20057;-65
2023/09/10 08:35:55;;;;;;;8.90;5.47;;;29.10;98.10;;;;;;4129605;28;20046;-65
2023/09/10 08:37:56;;;;;;;9.15;4.35;;;29.00;97.40;;;;;;4142678;28;20029;-66
2023/09/10 08:39:56;;;;;;;8.00;4.53;;;29.10;97.80;;;;;;4144077;28;20064;-66
2023/09/10 08:42:20;;;;;;;10.93;5.50;;;29.10;97.60;;;;;;4133877;28;20025;-67
2023/09/10 08:44:22;;;;;;;8.40;4.93;;;29.20;97.60;;;;;;4144550;28;20060;-66
2023/09/10 08:46:29;;;;;;;8.00;5.03;;;29.20;97.30;;;;;;4133797;28;20089;-66
2023/09/10 08:48:32;;;;;;;8.27;5.20;;;29.30;97.20;;;;;;4145513;28;20042;-65
2023/09/10 08:50:33;;;;;;;;;;;29.30;96.80;;;;;;4141607;28;20033;-66
2023/09/10 08:52:39;;;;;;;5.80;4.05;;;29.40;97.10;;;;;;4138165;28;19917;-66
2023/09/10 08:54:40;;;;;;;7.55;4.63;;;29.40;96.10;;;;;;4141049;28;20045;-66
2023/09/10 08:56:42;;;;;;;4.95;4.03;;;29.40;96.10;;;;;;4144871;28;20410;-65
2023/09/10 08:58:44;;;;;;;6.77;4.13;;;29.30;96.60;;;;;;4130346;28;20034;-65
2023/09/10 09:00:46;;;;;;;8.70;4.30;;;29.40;96.50;;;;;;4125552;28;20130;-65
2023/09/10 09:02:47;;;;;;;;;;;29.50;96.30;;;;;;4149451;28;20076;-69
2023/09/10 09:04:47;;;;;;;7.55;4.70;;;29.50;96.20;;;;;;4136977;28;20611;-66
2023/09/10 09:06:53;;;;;;;10.13;4.18;;;29.50;96.20;;;;;;4132497;28;20405;-65
2023/09/10 09:08:56;;;;;;;7.80;4.95;;;29.50;95.70;;;;;;4132696;28;20073;-65
2023/09/10 09:11:03;;;;;;;9.40;5.07;;;29.50;95.50;;;;;;4142883;28;20076;-66
2023/09/10 09:13:09;;;;;;;7.45;4.55;;;29.50;96.00;;;;;;4141377;28;20031;-66
2023/09/10 09:15:11;;;;;;;7.15;4.47;;;29.60;95.70;;;;;;4138563;28;20445;-67
2023/09/10 09:17:13;;;;;;;10.18;4.50;;;29.50;95.70;;;;;;4135923;28;20034;-66
2023/09/10 09:19:15;;;;;;;7.45;5.03;;;29.60;95.90;;;;;;4138939;28;20037;-67
2023/09/10 09:21:21;;;;;;;8.77;5.43;;;29.50;95.70;;;;;;4145145;28;20038;-68
2023/09/10 09:23:43;;;;;;;7.75;4.32;;;29.60;96.10;;;;;;4144621;28;20038;-68
2023/09/10 09:25:44;;;;;;;6.43;4.22;;;29.60;95.80;;;;;;4140798;28;20038;-66
2023/09/10 09:27:46;;;;;;;4.97;3.85;;;29.70;96.10;;;;;;4149154;28;20060;-66
2023/09/10 09:29:47;;;;;;;7.55;4.03;;;29.80;95.70;;;;;;4134142;28;20042;-66
2023/09/10 09:31:47;;;;;;;7.57;4.18;;;29.80;96.00;;;;;;4139116;28;20406;-66
2023/09/10 09:33:49;;;;;;;9.98;4.88;;;29.90;96.10;;;;;;4151673;28;20132;-66
2023/09/10 09:35:49;;;;;;;6.05;4.18;;;30.00;95.20;;;;;;4140996;28;20034;-66
2023/09/10 09:37:50;;;;;;;6.75;4.38;;;30.00;95.30;;;;;;4144978;28;20380;-66
2023/09/10 09:39:51;;;;;;;8.98;4.00;;;30.10;95.40;;;;;;4144906;28;20030;-66
2023/09/10 09:41:53;;;;;;;10.75;4.93;;;30.20;94.80;;;;;;4139537;28;20037;-66
2023/09/10 09:43:56;;;;;;;13.43;4.85;;;30.20;93.70;;;;;;4135739;28;20034;-66
2023/09/10 09:45:57;;;;;;;6.68;4.28;;;30.20;94.50;;;;;;4134981;28;20038;-66
2023/09/10 09:47:57;;;;;;;7.13;4.40;;;30.30;94.30;;;;;;4147234;28;20033;-67
2023/09/10 09:49:58;;;;;;;11.45;4.68;;;30.30;94.40;;;;;;4137239;28;20108;-66
2023/09/10 09:51:59;;;;;;;6.55;4.07;;;30.30;94.50;;;;;;4138470;28;20186;-66
2023/09/10 09:54:01;;;;;;;10.00;4.97;;;30.40;94.40;;;;;;4140494;28;20038;-68
2023/09/10 09:56:05;;;;;;;6.40;4.07;;;30.40;93.90;;;;;;4142037;28;20081;-66
2023/09/10 09:58:06;;;;;;;5.40;3.63;;;30.40;93.70;;;;;;4139050;28;20041;-66
2023/09/10 10:00:10;;;;;;;8.15;4.18;;;30.50;93.60;;;;;;4132758;28;20046;-68
2023/09/10 10:02:15;;;;;;;8.13;4.03;;;30.50;93.70;;;;;;4138450;28;20038;-66
2023/09/10 10:04:18;;;;;;;8.85;4.00;;;30.60;93.90;;;;;;4143670;28;20029;-66
2023/09/10 10:06:19;;;;;;;9.80;5.03;;;30.60;93.90;;;;;;4139475;28;20084;-66
2023/09/10 10:08:25;;;;;;;7.85;3.97;;;30.50;93.20;;;;;;4139605;28;20030;-67
2023/09/10 10:10:25;;;;;;;7.25;3.97;;;30.60;92.80;;;;;;4128482;28;20081;-66
2023/09/10 10:12:27;;;;;;;9.90;4.32;;;30.60;93.00;;;;;;4138022;28;20491;-66
2023/09/10 10:14:30;;;;;;;7.63;4.03;;;30.60;93.20;;;;;;4141900;28;20125;-66
2023/09/10 10:16:31;;;;;;;6.70;4.53;;;30.60;92.00;;;;;;4134882;28;20042;-66
2023/09/10 10:18:33;;;;;;;6.88;3.67;;;30.60;93.10;;;;;;4134750;28;20392;-66
2023/09/10 10:20:34;;;;;;;10.00;4.38;;;30.70;93.10;;;;;;4136685;28;20057;-66
2023/09/10 10:22:35;;;;;;;6.80;3.58;;;30.70;92.10;;;;;;4134537;28;20034;-66
2023/09/10 10:24:38;;;;;;;7.97;4.60;;;30.70;92.10;;;;;;4115993;28;20449;-65
2023/09/10 10:26:39;;;;;;;;;;;30.80;92.20;;;;;;4141321;28;20122;-65
2023/09/10 10:28:40;;;;;;;9.88;4.07;;;30.80;92.30;;;;;;4141316;28;19957;-66
2023/09/10 10:30:52;;;;;;;10.23;4.05;;;30.80;92.20;;;;;;4133840;28;20103;-65